Terminal Aerodrome Forecast
Issued by NWS

Home | Current Version | Previous Version | Text Only | Print | Product List | Glossary On
Versions: 1 2 3 4 5 6 7 8 9 10 11 12 13 14 15 16 17 18 19 20 21 22 23 24 25 26 27 28 29 30 31 32 33
155
FTUS43 KDVN 210528 AAA
TAFCID
TAF AMD
KCID 210528Z 2105/2206 27025G45KT 1SM TSRA BKN025CB
     FM210615 09010KT 4SM TSRA BKN030CB
     FM210900 12007KT 5SM BR BKN035
     FM211400 15008KT P6SM VCSH BKN080
     FM211800 18012KT P6SM SCT100
     FM220200 21010KT P6SM BKN100=

USA.gov is the U.S. government's official web portal to all federal, state and local government web resources and services.